Aeroporto :
LOGIN :

Iscrizione | Disclaimer

   EN    FR    IT 

 










Sommario :    VFR   VFR Marginale   IFR   IFR Intensivo   IFR Molto Intensivo
Visibilità : 
Base nubi : 
>= 8 km
>= 3000ft
5 / 8 km
1000 / 3000 ft
1500m / 5 km
500 / 1000 ft
800 / 1500m
200 / 500 ft
< 800m
< 200 ft
Simboli :   Temporali  Nebbia  Neve Forte  Precipitazioni Forti  Vento > 20 kt
SIGMETs :   Varie  Temporali  Ghiacco  Turbolenza  Onda orograficha  Ceneri Vulcaniche






- Altitudine del aeroporto : 367 ft


EGYE - RAF Barkston Heath

ULTIMO METAR :
  • 220850Z AUTO 28012KT //// BKN015/// 16/12 Q1011

METARs OBSOLETI :
  • 220820Z AUTO 27013KT //// BKN015/// SCT031/// 17/13 Q1011
  • 220750Z AUTO 25012KT //// SCT014/// 17/13 Q1011
  • 220720Z AUTO 26012KT //// BKN012/// 16/13 Q1011
  • 220650Z AUTO 26012KT //// FEW012/// 16/12 Q1010
  • 220620Z AUTO 25008KT //// SCT012/// BKN077/// 14/12 Q1010
  • 220550Z AUTO 24010KT //// OVC059/// 14/12 Q1010
  • 220520Z AUTO 24010KT //// FEW051/// OVC063/// 14/12 Q1010
  • 220450Z AUTO 24010KT //// OVC066/// 14/12 Q1010
  • 220420Z AUTO 24011KT //// OVC059/// 13/11 Q1010

Previsioni scadute.



MetMap, La meteo Aeronautica in un colpo d'occhio ! - Copyright ORBIFLY Dicembre 2007 - Disclaimer

ORBIFLY MET'MAP TEAM :

Programmazione e sviluppo : Alexandra Zaïnal
Concezione : Baudouin d'Aumeries
Supporto tecnico e logistico : Manuel Goepfert
Aiuto : Marc-Olivier Méhu
Aiuto per la traduzione : Arnaldo La Scala




FONTI E CREDITI :

   NOAA